Time;durP1;ratioP1;P1;durP2;ratioP2;P2;SDS_P1;SDS_P2;PMS_P1;PMS_P2;Temp;Humidity;BMP_temperature;BMP_pressure;BME280_temperature;BME280_humidity;BME280_pressure;Samples;Min_cycle;Max_cycle;Signal;HPM_P1;HPM_P2
2023/09/22 00:01:39;;;;;;;0.40;0.40;;;;;;;;;;5073967;28;20203;-86
2023/09/22 00:04:11;;;;;;;0.37;0.37;;;;;;;;;;5073953;28;20233;-85
2023/09/22 00:06:39;;;;;;;0.40;0.40;;;;;;;;;;5075417;28;20258;-85
2023/09/22 00:09:09;;;;;;;0.40;0.40;;;;;;;;;;5074853;28;20204;-86
2023/09/22 00:11:37;;;;;;;0.40;0.40;;;;;;;;;;5074253;28;20214;-85
2023/09/22 00:14:07;;;;;;;0.40;0.40;;;;;;;;;;5075285;28;20219;-85
2023/09/22 00:16:36;;;;;;;0.40;0.40;;;;;;;;;;5074025;28;20206;-85
2023/09/22 00:19:05;;;;;;;0.40;0.40;;;;;;;;;;5073442;28;20208;-85
2023/09/22 00:21:36;;;;;;;0.40;0.40;;;;;;;;;;5073593;28;20298;-85
2023/09/22 00:24:04;;;;;;;0.40;0.40;;;;;;;;;;5073761;28;20247;-85
2023/09/22 00:26:33;;;;;;;0.40;0.40;;;;;;;;;;5073204;28;20223;-85
2023/09/22 00:29:01;;;;;;;0.40;0.40;;;;;;;;;;5073594;28;20206;-85
2023/09/22 00:31:30;;;;;;;0.40;0.40;;;;;;;;;;5073336;28;20234;-84
2023/09/22 00:33:58;;;;;;;0.40;0.40;;;;;;;;;;5073470;28;20235;-84
2023/09/22 00:36:27;;;;;;;0.60;0.60;;;;;;;;;;5073889;28;20294;-85
2023/09/22 00:38:56;;;;;;;0.40;0.40;;;;;;;;;;5072441;28;20242;-84
2023/09/22 00:41:25;;;;;;;0.40;0.40;;;;;;;;;;5073282;28;20203;-84
2023/09/22 00:43:53;;;;;;;0.47;0.47;;;;;;;;;;5072945;28;20228;-84
2023/09/22 00:46:23;;;;;;;0.40;0.40;;;;;;;;;;5072681;28;20406;-84
2023/09/22 00:48:52;;;;;;;0.40;0.40;;;;;;;;;;5072847;28;20201;-84
2023/09/22 00:51:21;;;;;;;0.40;0.40;;;;;;;;;;5072563;28;20235;-84
2023/09/22 00:53:50;;;;;;;0.40;0.40;;;;;;;;;;5072559;28;20248;-84
2023/09/22 00:56:21;;;;;;;0.50;0.50;;;;;;;;;;5072684;28;20190;-83
2023/09/22 00:58:50;;;;;;;0.43;0.43;;;;;;;;;;5072586;28;20202;-83
2023/09/22 01:01:20;;;;;;;0.40;0.40;;;;;;;;;;5072739;28;20208;-83
2023/09/22 01:03:51;;;;;;;0.40;0.40;;;;;;;;;;5072542;28;20200;-83
2023/09/22 01:06:19;;;;;;;0.40;0.40;;;;;;;;;;5071643;28;20220;-83
2023/09/22 01:08:48;;;;;;;0.40;0.40;;;;;;;;;;5072787;28;20200;-83
2023/09/22 01:11:17;;;;;;;0.40;0.40;;;;;;;;;;5072861;28;20198;-83
2023/09/22 01:13:46;;;;;;;0.40;0.40;;;;;;;;;;5072654;28;20366;-83
2023/09/22 01:16:15;;;;;;;0.40;0.40;;;;;;;;;;5072598;28;20384;-83
2023/09/22 01:18:44;;;;;;;0.40;0.40;;;;;;;;;;5072424;28;20202;-82
2023/09/22 01:21:14;;;;;;;0.50;0.50;;;;;;;;;;5072487;28;20197;-83
2023/09/22 01:23:44;;;;;;;0.40;0.40;;;;;;;;;;5072512;28;20206;-83
2023/09/22 01:26:12;;;;;;;0.40;0.40;;;;;;;;;;5071778;28;20320;-83
2023/09/22 01:28:41;;;;;;;0.40;0.40;;;;;;;;;;5072481;28;20194;-82
2023/09/22 01:31:10;;;;;;;0.40;0.40;;;;;;;;;;5072718;28;20199;-83
2023/09/22 01:33:39;;;;;;;0.50;0.50;;;;;;;;;;5072216;28;20240;-83
2023/09/22 01:36:08;;;;;;;0.50;0.50;;;;;;;;;;5072556;28;20195;-83
2023/09/22 01:38:37;;;;;;;0.50;0.50;;;;;;;;;;5072601;28;20210;-83
2023/09/22 01:41:07;;;;;;;0.40;0.40;;;;;;;;;;5072700;28;20199;-83
2023/09/22 01:43:37;;;;;;;0.50;0.50;;;;;;;;;;5072109;28;20195;-82
2023/09/22 01:46:05;;;;;;;0.50;0.50;;;;;;;;;;5072433;28;20222;-83
2023/09/22 01:48:34;;;;;;;0.40;0.40;;;;;;;;;;5072807;28;20194;-82
2023/09/22 01:51:03;;;;;;;0.40;0.40;;;;;;;;;;5072019;28;20272;-82
2023/09/22 01:53:31;;;;;;;0.40;0.40;;;;;;;;;;5072425;28;20270;-83
2023/09/22 01:56:00;;;;;;;0.50;0.50;;;;;;;;;;5072202;28;20217;-83
2023/09/22 01:58:29;;;;;;;0.40;0.40;;;;;;;;;;5072429;28;20224;-82
2023/09/22 02:00:58;;;;;;;0.40;0.40;;;;;;;;;;5072309;28;20197;-82
2023/09/22 02:03:27;;;;;;;0.50;0.50;;;;;;;;;;5072145;28;20297;-82
2023/09/22 02:05:57;;;;;;;0.40;0.40;;;;;;;;;;5072061;28;20221;-83
2023/09/22 02:08:26;;;;;;;0.40;0.40;;;;;;;;;;5072318;28;20209;-82
2023/09/22 02:10:54;;;;;;;0.43;0.43;;;;;;;;;;5071984;28;20209;-82
2023/09/22 02:13:22;;;;;;;0.50;0.50;;;;;;;;;;5071935;28;20200;-83
2023/09/22 02:15:53;;;;;;;0.40;0.40;;;;;;;;;;5071958;28;20198;-83
2023/09/22 02:18:23;;;;;;;0.40;0.40;;;;;;;;;;5072355;28;20291;-82
2023/09/22 02:20:53;;;;;;;0.40;0.40;;;;;;;;;;5071981;28;20202;-82
2023/09/22 02:23:22;;;;;;;0.50;0.50;;;;;;;;;;5071769;28;20197;-83
2023/09/22 02:25:51;;;;;;;0.40;0.40;;;;;;;;;;5071887;28;20233;-82
2023/09/22 02:28:19;;;;;;;0.40;0.40;;;;;;;;;;5071775;28;20236;-82
2023/09/22 02:30:48;;;;;;;0.40;0.40;;;;;;;;;;5071466;28;20349;-83
2023/09/22 02:33:18;;;;;;;0.40;0.40;;;;;;;;;;5072256;28;20411;-82
2023/09/22 02:35:47;;;;;;;0.40;0.40;;;;;;;;;;5071572;28;20298;-82
2023/09/22 02:38:15;;;;;;;0.40;0.40;;;;;;;;;;5071552;28;20221;-83
2023/09/22 02:40:45;;;;;;;0.40;0.40;;;;;;;;;;5071519;28;20289;-82
2023/09/22 02:43:13;;;;;;;0.50;0.50;;;;;;;;;;5071738;28;20202;-83
2023/09/22 02:45:42;;;;;;;0.40;0.40;;;;;;;;;;5071722;28;20198;-83
2023/09/22 02:48:11;;;;;;;0.40;0.40;;;;;;;;;;5071264;28;20221;-83
2023/09/22 02:50:41;;;;;;;0.40;0.40;;;;;;;;;;5071302;28;20223;-82
2023/09/22 02:53:09;;;;;;;0.50;0.50;;;;;;;;;;5071817;28;20202;-82
2023/09/22 02:55:38;;;;;;;0.40;0.40;;;;;;;;;;5071710;28;20276;-83
2023/09/22 02:58:08;;;;;;;0.40;0.40;;;;;;;;;;5071189;28;20193;-83
2023/09/22 03:00:37;;;;;;;0.40;0.40;;;;;;;;;;5072001;28;20203;-82
2023/09/22 03:03:06;;;;;;;0.50;0.50;;;;;;;;;;5075123;28;20209;-82
2023/09/22 03:05:35;;;;;;;0.40;0.40;;;;;;;;;;5075209;28;20290;-82
2023/09/22 03:08:05;;;;;;;0.40;0.40;;;;;;;;;;5074752;28;20202;-82
2023/09/22 03:10:34;;;;;;;0.40;0.40;;;;;;;;;;5075362;28;20201;-82
2023/09/22 03:13:03;;;;;;;0.40;0.40;;;;;;;;;;5075335;28;20205;-83
2023/09/22 03:15:31;;;;;;;0.50;0.50;;;;;;;;;;5074890;28;20298;-82
2023/09/22 03:18:00;;;;;;;0.50;0.50;;;;;;;;;;5074978;28;20204;-82
2023/09/22 03:20:28;;;;;;;0.40;0.40;;;;;;;;;;5075162;28;20198;-82
2023/09/22 03:22:57;;;;;;;0.40;0.40;;;;;;;;;;5075086;28;20238;-82
2023/09/22 03:25:26;;;;;;;0.40;0.40;;;;;;;;;;5074410;28;20266;-82
2023/09/22 03:27:55;;;;;;;0.50;0.50;;;;;;;;;;5074751;28;20220;-82
2023/09/22 03:30:24;;;;;;;0.40;0.40;;;;;;;;;;5074990;28;20198;-83
2023/09/22 03:32:54;;;;;;;0.40;0.40;;;;;;;;;;5074575;28;20284;-82
2023/09/22 03:35:22;;;;;;;0.40;0.40;;;;;;;;;;5074241;28;20201;-82
2023/09/22 03:37:52;;;;;;;0.40;0.40;;;;;;;;;;5074678;28;20225;-82
2023/09/22 03:40:30;;;;;;;0.50;0.50;;;;;;;;;;5074642;28;20208;-82
2023/09/22 03:43:01;;;;;;;0.50;0.50;;;;;;;;;;5074523;28;20221;-83
2023/09/22 03:45:31;;;;;;;0.43;0.43;;;;;;;;;;5074077;28;20225;-82
2023/09/22 03:48:00;;;;;;;0.50;0.50;;;;;;;;;;5074428;28;20218;-82
2023/09/22 03:50:28;;;;;;;0.40;0.40;;;;;;;;;;5074641;28;20233;-82
2023/09/22 03:52:57;;;;;;;0.50;0.50;;;;;;;;;;5074025;28;20207;-82
2023/09/22 03:55:25;;;;;;;0.50;0.50;;;;;;;;;;5074034;28;20202;-83
2023/09/22 03:57:55;;;;;;;0.40;0.40;;;;;;;;;;5074165;28;20198;-83
2023/09/22 04:00:28;;;;;;;0.50;0.50;;;;;;;;;;5074167;28;20206;-82
2023/09/22 04:02:57;;;;;;;0.50;0.50;;;;;;;;;;5073478;28;20229;-82
2023/09/22 04:05:26;;;;;;;0.50;0.50;;;;;;;;;;5074167;28;20207;-82
2023/09/22 04:07:55;;;;;;;0.50;0.50;;;;;;;;;;5074054;28;20234;-82
2023/09/22 04:10:23;;;;;;;0.40;0.40;;;;;;;;;;5073817;28;20256;-82
2023/09/22 04:12:52;;;;;;;0.40;0.40;;;;;;;;;;5072617;28;20205;-82
2023/09/22 04:15:23;;;;;;;0.50;0.50;;;;;;;;;;5074414;28;20207;-82
2023/09/22 04:17:53;;;;;;;0.50;0.50;;;;;;;;;;5074244;28;20288;-82
2023/09/22 04:20:28;;;;;;;0.40;0.40;;;;;;;;;;5074084;28;20213;-82
2023/09/22 04:22:58;;;;;;;0.40;0.40;;;;;;;;;;5073403;28;20206;-82
2023/09/22 04:25:33;;;;;;;0.50;0.50;;;;;;;;;;5073374;28;20233;-82
2023/09/22 04:28:09;;;;;;;0.50;0.50;;;;;;;;;;5073428;28;20221;-82
2023/09/22 04:30:38;;;;;;;0.40;0.40;;;;;;;;;;5072835;28;20214;-82
2023/09/22 04:33:08;;;;;;;0.40;0.40;;;;;;;;;;5073253;28;20202;-82
2023/09/22 04:35:37;;;;;;;0.50;0.50;;;;;;;;;;5073285;28;20384;-82
2023/09/22 04:38:06;;;;;;;0.40;0.40;;;;;;;;;;5073163;28;20229;-82
2023/09/22 04:40:36;;;;;;;0.40;0.40;;;;;;;;;;5072989;28;20202;-82
2023/09/22 04:43:07;;;;;;;0.40;0.40;;;;;;;;;;5073580;28;20302;-82
2023/09/22 04:45:38;;;;;;;0.40;0.40;;;;;;;;;;5072832;28;20297;-82
2023/09/22 04:48:09;;;;;;;0.50;0.50;;;;;;;;;;5072393;28;20219;-81
2023/09/22 04:50:38;;;;;;;0.50;0.50;;;;;;;;;;5072757;28;20241;-81
2023/09/22 04:53:07;;;;;;;0.40;0.40;;;;;;;;;;5073075;28;20198;-82
2023/09/22 04:55:37;;;;;;;0.50;0.50;;;;;;;;;;5072859;28;20280;-82
2023/09/22 04:58:07;;;;;;;0.50;0.50;;;;;;;;;;5072626;28;20233;-82
2023/09/22 05:00:36;;;;;;;0.40;0.40;;;;;;;;;;5072647;28;20201;-82
2023/09/22 05:03:06;;;;;;;0.50;0.50;;;;;;;;;;5072466;28;20198;-82
2023/09/22 05:05:37;;;;;;;0.40;0.40;;;;;;;;;;5072623;28;20207;-82
2023/09/22 05:08:07;;;;;;;0.40;0.40;;;;;;;;;;5071984;28;20263;-82
2023/09/22 05:10:35;;;;;;;0.40;0.40;;;;;;;;;;5072624;28;20199;-82
2023/09/22 05:13:04;;;;;;;0.50;0.50;;;;;;;;;;5072675;28;20210;-81
2023/09/22 05:15:33;;;;;;;0.43;0.43;;;;;;;;;;5072508;28;20198;-81
2023/09/22 05:18:04;;;;;;;0.50;0.50;;;;;;;;;;5072426;28;20216;-82
2023/09/22 05:20:33;;;;;;;0.50;0.50;;;;;;;;;;5072707;28;20221;-82
2023/09/22 05:23:03;;;;;;;0.50;0.50;;;;;;;;;;5072659;28;20215;-82
2023/09/22 05:25:33;;;;;;;0.50;0.50;;;;;;;;;;5071396;28;20195;-82
2023/09/22 05:28:01;;;;;;;0.40;0.40;;;;;;;;;;5072053;28;20218;-82
2023/09/22 05:30:31;;;;;;;0.50;0.50;;;;;;;;;;5072135;28;20237;-82
2023/09/22 05:33:00;;;;;;;0.50;0.50;;;;;;;;;;5072165;28;20198;-82
2023/09/22 05:35:28;;;;;;;0.40;0.40;;;;;;;;;;5072367;28;20233;-82
2023/09/22 05:37:57;;;;;;;0.40;0.40;;;;;;;;;;5072189;28;20218;-82
2023/09/22 05:40:27;;;;;;;0.40;0.40;;;;;;;;;;5072555;28;20251;-82
2023/09/22 05:42:56;;;;;;;0.50;0.50;;;;;;;;;;5072338;28;20201;-82
2023/09/22 05:45:25;;;;;;;0.40;0.40;;;;;;;;;;5071866;28;20272;-82
2023/09/22 05:47:54;;;;;;;0.40;0.40;;;;;;;;;;5072084;28;20218;-82
2023/09/22 05:50:23;;;;;;;0.40;0.40;;;;;;;;;;5071967;28;20206;-82
2023/09/22 05:52:51;;;;;;;0.40;0.40;;;;;;;;;;5072037;28;20277;-81
2023/09/22 05:55:20;;;;;;;0.40;0.40;;;;;;;;;;5072662;28;20202;-83
2023/09/22 05:57:53;;;;;;;0.50;0.50;;;;;;;;;;5072640;28;20217;-82
2023/09/22 06:00:26;;;;;;;0.40;0.40;;;;;;;;;;5073068;28;20288;-81
2023/09/22 06:02:55;;;;;;;0.40;0.40;;;;;;;;;;5072432;28;20213;-81
2023/09/22 06:05:24;;;;;;;0.47;0.47;;;;;;;;;;5072355;28;20202;-81
2023/09/22 06:07:54;;;;;;;0.50;0.50;;;;;;;;;;5072156;28;20227;-82
2023/09/22 06:10:24;;;;;;;0.50;0.50;;;;;;;;;;5072552;28;20208;-81
2023/09/22 06:12:54;;;;;;;0.40;0.40;;;;;;;;;;5072279;28;20210;-82
2023/09/22 06:15:23;;;;;;;0.40;0.40;;;;;;;;;;5072572;28;20221;-81
2023/09/22 06:17:51;;;;;;;0.40;0.40;;;;;;;;;;5071983;28;20203;-81
2023/09/22 06:20:20;;;;;;;0.50;0.50;;;;;;;;;;5072281;28;20202;-82
2023/09/22 06:22:49;;;;;;;0.50;0.50;;;;;;;;;;5072154;28;20203;-80
2023/09/22 06:25:18;;;;;;;0.50;0.50;;;;;;;;;;5071991;28;20190;-81
2023/09/22 06:27:47;;;;;;;0.50;0.50;;;;;;;;;;5072227;28;20221;-81
2023/09/22 06:30:23;;;;;;;0.50;0.50;;;;;;;;;;5072288;28;20205;-80
2023/09/22 06:32:51;;;;;;;0.40;0.40;;;;;;;;;;5071811;28;20209;-80
2023/09/22 06:35:20;;;;;;;0.50;0.50;;;;;;;;;;5072363;28;20210;-80
2023/09/22 06:37:49;;;;;;;0.50;0.50;;;;;;;;;;5075134;28;20254;-80
2023/09/22 06:40:17;;;;;;;0.40;0.40;;;;;;;;;;5075982;28;20191;-79
2023/09/22 06:42:46;;;;;;;0.43;0.43;;;;;;;;;;5076045;28;20211;-81
2023/09/22 06:45:15;;;;;;;0.50;0.50;;;;;;;;;;5076217;28;20207;-80
2023/09/22 06:47:49;;;;;;;0.50;0.50;;;;;;;;;;5075819;28;20267;-80
2023/09/22 06:50:19;;;;;;;0.40;0.40;;;;;;;;;;5075803;28;20214;-81
2023/09/22 06:52:49;;;;;;;0.43;0.43;;;;;;;;;;5076517;28;20211;-81
2023/09/22 06:55:18;;;;;;;0.40;0.40;;;;;;;;;;5075999;28;20204;-80
2023/09/22 06:57:46;;;;;;;0.43;0.43;;;;;;;;;;5075703;28;20206;-81
2023/09/22 07:00:22;;;;;;;0.50;0.50;;;;;;;;;;5075857;28;20199;-80
2023/09/22 07:02:52;;;;;;;0.40;0.40;;;;;;;;;;5076384;28;20215;-80
2023/09/22 07:05:21;;;;;;;0.40;0.40;;;;;;;;;;5076056;28;20262;-80
2023/09/22 07:07:52;;;;;;;0.50;0.50;;;;;;;;;;5075251;28;20228;-80
2023/09/22 07:10:23;;;;;;;0.40;0.40;;;;;;;;;;5075600;28;20245;-80
2023/09/22 07:12:52;;;;;;;0.50;0.50;;;;;;;;;;5075956;28;20207;-81
2023/09/22 07:15:22;;;;;;;0.50;0.50;;;;;;;;;;5075520;28;20219;-81
2023/09/22 07:17:50;;;;;;;0.50;0.50;;;;;;;;;;5075330;28;20199;-80
2023/09/22 07:20:21;;;;;;;0.50;0.50;;;;;;;;;;5075486;28;20204;-80
2023/09/22 07:22:50;;;;;;;0.50;0.50;;;;;;;;;;5075505;28;20205;-80
2023/09/22 07:25:20;;;;;;;1.57;1.47;;;;;;;;;;5075600;28;20211;-80
2023/09/22 07:27:48;;;;;;;7.13;6.43;;;;;;;;;;5075388;28;20208;-81
2023/09/22 07:30:18;;;;;;;0.50;0.50;;;;;;;;;;5075224;28;20326;-80
2023/09/22 07:32:47;;;;;;;0.50;0.50;;;;;;;;;;5075126;28;20215;-81
2023/09/22 07:35:16;;;;;;;0.40;0.40;;;;;;;;;;5074707;28;20228;-80
2023/09/22 07:37:46;;;;;;;6.53;5.10;;;;;;;;;;5074758;28;20323;-81
2023/09/22 07:40:17;;;;;;;4.77;4.03;;;;;;;;;;5073901;28;20198;-81
2023/09/22 07:42:46;;;;;;;4.83;3.40;;;;;;;;;;5071557;28;20256;-81
2023/09/22 07:45:14;;;;;;;8.07;3.20;;;;;;;;;;5068607;28;20200;-80
2023/09/22 07:47:43;;;;;;;5.33;3.20;;;;;;;;;;5070500;28;20201;-80
2023/09/22 07:50:12;;;;;;;3.93;3.07;;;;;;;;;;5072966;28;20313;-80
2023/09/22 07:52:43;;;;;;;7.53;3.70;;;;;;;;;;5072713;28;20242;-81
2023/09/22 07:55:15;;;;;;;3.70;3.00;;;;;;;;;;5074664;28;20239;-83
2023/09/22 07:57:48;;;;;;;3.17;2.87;;;;;;;;;;5066919;28;20216;-83
2023/09/22 08:00:19;;;;;;;4.37;3.97;;;;;;;;;;5064172;28;20206;-84
2023/09/22 08:02:49;;;;;;;4.90;4.40;;;;;;;;;;5069003;28;20203;-83
2023/09/22 08:05:18;;;;;;;5.63;4.03;;;;;;;;;;5066142;28;20214;-82
2023/09/22 08:07:49;;;;;;;5.50;4.40;;;;;;;;;;5069653;28;20245;-83
2023/09/22 08:10:22;;;;;;;6.17;5.57;;;;;;;;;;5069308;28;20222;-83
2023/09/22 08:12:53;;;;;;;6.20;5.53;;;;;;;;;;5068978;28;20203;-83
2023/09/22 08:15:23;;;;;;;7.47;5.30;;;;;;;;;;5066498;28;20211;-82
2023/09/22 08:17:52;;;;;;;6.53;4.37;;;;;;;;;;5067599;28;20218;-86
2023/09/22 08:20:21;;;;;;;6.73;5.13;;;;;;;;;;5068714;28;20199;-84
2023/09/22 08:22:50;;;;;;;4.50;4.10;;;;;;;;;;5069323;28;20210;-84
2023/09/22 08:25:20;;;;;;;4.63;4.10;;;;;;;;;;5068870;28;20204;-84
2023/09/22 08:27:52;;;;;;;5.43;4.53;;;;;;;;;;5066303;28;20257;-84
2023/09/22 08:30:21;;;;;;;4.77;4.37;;;;;;;;;;5068513;28;20329;-84
2023/09/22 08:32:49;;;;;;;6.30;4.70;;;;;;;;;;5066269;28;20235;-84
2023/09/22 08:35:18;;;;;;;4.13;3.73;;;;;;;;;;5065849;28;20225;-84
2023/09/22 08:37:47;;;;;;;4.37;4.03;;;;;;;;;;5064329;28;20236;-84
2023/09/22 08:40:17;;;;;;;2.90;2.57;;;;;;;;;;5065658;28;20261;-84
2023/09/22 08:42:51;;;;;;;3.97;3.57;;;;;;;;;;5066588;28;20215;-84
2023/09/22 08:45:23;;;;;;;4.80;4.30;;;;;;;;;;5063982;28;20269;-85
2023/09/22 08:47:52;;;;;;;4.57;3.77;;;;;;;;;;5064663;28;20199;-83
2023/09/22 08:50:21;;;;;;;5.37;4.17;;;;;;;;;;5062966;28;20223;-83
2023/09/22 08:52:52;;;;;;;5.33;4.93;;;;;;;;;;5066718;28;20338;-84
2023/09/22 08:55:21;;;;;;;4.80;4.50;;;;;;;;;;5063740;28;20234;-84
2023/09/22 08:57:53;;;;;;;6.13;5.60;;;;;;;;;;5060951;28;20193;-84
2023/09/22 09:00:23;;;;;;;5.63;5.07;;;;;;;;;;5063939;28;20214;-84
2023/09/22 09:02:52;;;;;;;6.27;5.77;;;;;;;;;;5063729;28;20302;-84
2023/09/22 09:05:22;;;;;;;5.80;5.23;;;;;;;;;;5064217;28;20251;-84
2023/09/22 09:07:51;;;;;;;7.03;6.33;;;;;;;;;;5062459;28;20224;-85
2023/09/22 09:10:30;;;;;;;9.03;6.43;;;;;;;;;;5060365;28;20226;-84
2023/09/22 09:13:03;;;;;;;3.00;2.80;;;;;;;;;;5056800;28;20211;-84
2023/09/22 09:15:41;;;;;;;5.63;5.00;;;;;;;;;;5061193;28;20208;-84
2023/09/22 09:18:12;;;;;;;5.67;5.17;;;;;;;;;;5062409;28;20205;-84
2023/09/22 09:20:41;;;;;;;5.57;4.93;;;;;;;;;;5063494;28;20275;-84
2023/09/22 09:23:14;;;;;;;6.50;4.37;;;;;;;;;;5064579;28;20216;-84
2023/09/22 09:25:43;;;;;;;5.13;3.37;;;;;;;;;;5058831;28;20204;-84
2023/09/22 09:28:14;;;;;;;5.27;4.87;;;;;;;;;;5068076;28;20230;-84
2023/09/22 09:30:50;;;;;;;4.30;3.90;;;;;;;;;;5064459;28;20254;-84
2023/09/22 09:33:21;;;;;;;3.90;3.10;;;;;;;;;;5061286;28;20207;-84
2023/09/22 09:35:50;;;;;;;4.37;3.97;;;;;;;;;;5060402;28;20208;-87
2023/09/22 09:38:20;;;;;;;4.73;3.10;;;;;;;;;;5064508;28;20201;-85
2023/09/22 09:40:49;;;;;;;5.87;3.83;;;;;;;;;;5062903;28;20200;-84
2023/09/22 09:43:19;;;;;;;2.90;2.70;;;;;;;;;;5064461;28;20308;-84
2023/09/22 09:45:49;;;;;;;3.17;2.70;;;;;;;;;;5065928;28;20205;-84
2023/09/22 09:48:18;;;;;;;2.87;2.40;;;;;;;;;;5065148;28;20218;-84
2023/09/22 09:50:48;;;;;;;3.03;2.83;;;;;;;;;;5064188;28;20222;-85
2023/09/22 09:53:31;;;;;;;1.83;1.67;;;;;;;;;;5057932;28;20240;-82
2023/09/22 09:56:00;;;;;;;1.83;1.63;;;;;;;;;;5051586;28;20212;-84
2023/09/22 09:58:34;;;;;;;3.73;2.60;;;;;;;;;;5052219;28;20202;-84
2023/09/22 10:01:05;;;;;;;3.93;3.27;;;;;;;;;;5052445;28;20212;-84
2023/09/22 10:03:35;;;;;;;1.27;1.17;;;;;;;;;;5051159;28;20205;-84
2023/09/22 10:06:06;;;;;;;2.10;2.00;;;;;;;;;;5050983;28;20205;-84
2023/09/22 10:08:37;;;;;;;1.53;1.43;;;;;;;;;;5052302;28;20203;-84
2023/09/22 10:11:08;;;;;;;2.00;1.83;;;;;;;;;;5052950;28;20232;-84
2023/09/22 10:13:45;;;;;;;2.33;1.43;;;;;;;;;;5055408;28;20288;-84
2023/09/22 10:16:28;;;;;;;2.37;1.90;;;;;;;;;;5055902;28;20259;-84
2023/09/22 10:18:59;;;;;;;2.57;1.23;;;;;;;;;;5056000;28;20186;-84
2023/09/22 10:21:43;;;;;;;2.90;1.90;;;;;;;;;;5055999;28;20201;-84
2023/09/22 10:24:24;;;;;;;4.47;2.47;;;;;;;;;;5055748;28;20236;-83
2023/09/22 10:27:09;;;;;;;3.57;3.27;;;;;;;;;;5055343;28;20232;-84
2023/09/22 10:29:55;;;;;;;3.10;2.80;;;;;;;;;;5055668;28;20209;-84
2023/09/22 10:32:29;;;;;;;1.67;1.57;;;;;;;;;;5055551;28;20201;-84
2023/09/22 10:35:03;;;;;;;1.13;1.13;;;;;;;;;;5055820;28;20238;-84
2023/09/22 10:37:34;;;;;;;3.40;3.17;;;;;;;;;;5055657;28;20230;-84
2023/09/22 10:40:11;;;;;;;4.37;3.00;;;;;;;;;;5055521;28;20198;-84
2023/09/22 10:42:45;;;;;;;2.07;1.90;;;;;;;;;;5055584;28;20243;-84
2023/09/22 10:45:15;;;;;;;4.13;2.60;;;;;;;;;;5055812;28;20259;-84
2023/09/22 10:47:46;;;;;;;3.67;3.20;;;;;;;;;;5055691;28;20201;-84
2023/09/22 10:50:15;;;;;;;3.73;3.30;;;;;;;;;;5054973;28;20279;-84
2023/09/22 10:52:50;;;;;;;2.17;1.97;;;;;;;;;;5054948;28;20245;-84
2023/09/22 10:55:23;;;;;;;3.07;1.83;;;;;;;;;;5055059;28;20212;-84
2023/09/22 10:57:51;;;;;;;2.50;2.23;;;;;;;;;;5055164;28;20205;-84
2023/09/22 11:00:20;;;;;;;3.60;2.67;;;;;;;;;;5054919;28;20193;-84
2023/09/22 11:02:50;;;;;;;3.27;2.70;;;;;;;;;;5055352;28;20349;-84
2023/09/22 11:05:19;;;;;;;3.47;2.30;;;;;;;;;;5055274;28;20236;-84
2023/09/22 11:07:51;;;;;;;3.13;1.93;;;;;;;;;;5054875;28;20212;-84
2023/09/22 11:10:20;;;;;;;2.57;2.37;;;;;;;;;;5054742;28;20214;-84
2023/09/22 11:12:49;;;;;;;5.43;4.33;;;;;;;;;;5054846;28;20206;-85
2023/09/22 11:15:18;;;;;;;3.40;2.80;;;;;;;;;;5054928;28;20205;-86
2023/09/22 11:17:47;;;;;;;2.43;2.00;;;;;;;;;;5054560;28;20241;-84
2023/09/22 11:20:23;;;;;;;1.27;1.17;;;;;;;;;;5054876;28;20210;-84
2023/09/22 11:22:52;;;;;;;1.70;1.40;;;;;;;;;;5054541;28;20207;-84
2023/09/22 11:25:21;;;;;;;1.07;1.07;;;;;;;;;;5055020;28;20268;-84
2023/09/22 11:27:51;;;;;;;1.60;1.50;;;;;;;;;;5054431;28;20205;-85
2023/09/22 11:30:25;;;;;;;3.07;1.60;;;;;;;;;;5054496;28;20217;-84
2023/09/22 11:32:54;;;;;;;2.90;1.50;;;;;;;;;;5054716;28;20228;-84
2023/09/22 11:35:37;;;;;;;0.97;0.90;;;;;;;;;;5054509;28;20263;-84
2023/09/22 11:38:26;;;;;;;3.43;3.30;;;;;;;;;;5054193;28;20225;-84
2023/09/22 11:41:03;;;;;;;0.80;0.80;;;;;;;;;;5055277;28;20197;-84
2023/09/22 11:43:32;;;;;;;2.10;1.13;;;;;;;;;;5054924;28;20300;-84
2023/09/22 11:46:11;;;;;;;1.93;1.53;;;;;;;;;;5054181;28;20205;-83
2023/09/22 11:48:59;;;;;;;5.67;1.33;;;;;;;;;;5054708;28;20205;-84
2023/09/22 11:51:43;;;;;;;1.13;0.80;;;;;;;;;;5054358;28;20226;-85
2023/09/22 11:54:12;;;;;;;1.23;1.13;;;;;;;;;;5054604;28;20210;-84
2023/09/22 11:56:45;;;;;;;3.00;1.60;;;;;;;;;;5054404;28;20217;-84
2023/09/22 11:59:14;;;;;;;1.37;1.20;;;;;;;;;;5054939;28;20187;-84
2023/09/22 12:01:45;;;;;;;1.27;0.60;;;;;;;;;;5054392;28;20212;-85
2023/09/22 12:04:14;;;;;;;0.50;0.50;;;;;;;;;;5054258;28;20197;-84
2023/09/22 12:06:45;;;;;;;1.73;1.20;;;;;;;;;;5054634;28;20203;-84
2023/09/22 12:09:14;;;;;;;0.80;0.80;;;;;;;;;;5054561;28;20209;-84
2023/09/22 12:11:43;;;;;;;1.20;1.10;;;;;;;;;;5054287;28;20222;-84
2023/09/22 12:14:12;;;;;;;1.10;1.00;;;;;;;;;;5053544;28;20200;-84
2023/09/22 12:16:41;;;;;;;0.77;0.77;;;;;;;;;;5053537;28;20206;-84
2023/09/22 12:19:10;;;;;;;1.20;0.60;;;;;;;;;;5054214;28;20205;-84
2023/09/22 12:21:38;;;;;;;5.80;0.97;;;;;;;;;;5054416;28;20205;-84
2023/09/22 12:24:10;;;;;;;4.50;1.70;;;;;;;;;;5053622;28;20206;-84
2023/09/22 12:26:39;;;;;;;2.50;1.13;;;;;;;;;;5053781;28;20309;-84
2023/09/22 12:29:08;;;;;;;2.83;1.37;;;;;;;;;;5054157;28;20232;-84
2023/09/22 12:31:38;;;;;;;0.70;0.70;;;;;;;;;;5053281;28;20323;-84
2023/09/22 12:34:06;;;;;;;0.77;0.57;;;;;;;;;;5052411;28;20237;-84
2023/09/22 12:36:35;;;;;;;0.87;0.80;;;;;;;;;;5052777;28;20222;-84
2023/09/22 12:39:04;;;;;;;2.70;1.20;;;;;;;;;;5053422;28;20198;-84
2023/09/22 12:41:35;;;;;;;0.90;0.90;;;;;;;;;;5052848;28;20186;-84
2023/09/22 12:44:04;;;;;;;4.23;1.80;;;;;;;;;;5053298;28;20203;-84
2023/09/22 12:46:32;;;;;;;1.60;1.13;;;;;;;;;;5053260;28;20233;-84
2023/09/22 12:49:01;;;;;;;1.20;1.10;;;;;;;;;;5053850;28;20233;-84
2023/09/22 12:51:29;;;;;;;12.10;1.00;;;;;;;;;;5052533;28;20238;-84
2023/09/22 12:53:58;;;;;;;1.70;0.87;;;;;;;;;;5052986;28;20213;-84
2023/09/22 12:56:28;;;;;;;2.10;1.00;;;;;;;;;;5053595;28;20213;-84
2023/09/22 12:58:58;;;;;;;3.70;1.30;;;;;;;;;;5052808;28;20190;-84
2023/09/22 13:01:27;;;;;;;2.10;1.00;;;;;;;;;;5052732;28;20195;-84
2023/09/22 13:03:56;;;;;;;2.27;1.00;;;;;;;;;;5053105;28;20196;-84
2023/09/22 13:06:24;;;;;;;1.20;0.77;;;;;;;;;;5053144;28;20614;-84
2023/09/22 13:08:54;;;;;;;0.97;0.80;;;;;;;;;;5052676;28;20234;-84
2023/09/22 13:11:23;;;;;;;2.27;1.00;;;;;;;;;;5052168;28;20297;-84
2023/09/22 13:13:51;;;;;;;3.40;0.83;;;;;;;;;;5052692;28;20205;-84
2023/09/22 13:16:22;;;;;;;1.00;1.00;;;;;;;;;;5052680;28;20268;-85
2023/09/22 13:18:51;;;;;;;3.30;1.03;;;;;;;;;;5073113;28;20206;-86
2023/09/22 13:21:20;;;;;;;1.30;0.70;;;;;;;;;;5072756;28;20201;-85
2023/09/22 13:23:49;;;;;;;4.03;1.30;;;;;;;;;;5080753;28;20220;-85
2023/09/22 13:26:20;;;;;;;1.10;0.87;;;;;;;;;;5072516;28;20276;-86
2023/09/22 13:28:50;;;;;;;4.33;1.13;;;;;;;;;;5056370;28;20204;-84
2023/09/22 13:31:19;;;;;;;1.63;1.53;;;;;;;;;;5064365;28;20213;-85
2023/09/22 13:33:50;;;;;;;0.83;0.73;;;;;;;;;;5059470;28;20261;-85
2023/09/22 13:36:19;;;;;;;1.70;1.10;;;;;;;;;;5059884;28;20230;-81
2023/09/22 13:38:47;;;;;;;0.83;0.77;;;;;;;;;;5061559;28;20292;-82
2023/09/22 13:41:16;;;;;;;1.73;1.10;;;;;;;;;;5060639;28;20232;-82
2023/09/22 13:43:45;;;;;;;4.17;1.17;;;;;;;;;;5059931;28;20209;-82
2023/09/22 13:46:14;;;;;;;2.67;1.00;;;;;;;;;;5057647;28;20284;-82
2023/09/22 13:48:44;;;;;;;0.93;0.90;;;;;;;;;;5059193;28;20258;-81
2023/09/22 13:51:15;;;;;;;0.93;0.90;;;;;;;;;;5062242;28;20212;-82
2023/09/22 13:53:44;;;;;;;0.40;0.40;;;;;;;;;;5058686;28;20231;-80
2023/09/22 13:56:17;;;;;;;2.40;0.87;;;;;;;;;;5058781;28;20244;-80
2023/09/22 13:58:49;;;;;;;1.10;1.10;;;;;;;;;;5060619;28;20223;-83
2023/09/22 14:01:20;;;;;;;0.50;0.50;;;;;;;;;;5060012;28;20369;-82
2023/09/22 14:03:49;;;;;;;2.20;0.80;;;;;;;;;;5058720;28;20306;-80
2023/09/22 14:06:21;;;;;;;3.37;1.13;;;;;;;;;;5071313;28;20206;-81
2023/09/22 14:08:53;;;;;;;1.43;1.00;;;;;;;;;;5061238;28;20209;-82
2023/09/22 14:14:07;;;;;;;0.50;0.50;;;;;;;;;;5049918;28;20214;-84
2023/09/22 14:16:36;;;;;;;0.50;0.50;;;;;;;;;;5051141;28;20225;-83
2023/09/22 14:19:04;;;;;;;0.77;0.77;;;;;;;;;;5050757;28;20206;-84
2023/09/22 14:21:34;;;;;;;0.40;0.40;;;;;;;;;;5051116;28;20208;-83
2023/09/22 14:24:03;;;;;;;0.43;0.43;;;;;;;;;;5051069;28;20197;-83
2023/09/22 14:26:31;;;;;;;1.07;1.07;;;;;;;;;;5051097;28;20216;-84
2023/09/22 14:29:00;;;;;;;0.60;0.60;;;;;;;;;;5051184;28;20197;-83
2023/09/22 14:31:28;;;;;;;0.40;0.40;;;;;;;;;;5051414;28;20204;-83
2023/09/22 14:33:57;;;;;;;1.70;1.23;;;;;;;;;;5049684;28;20212;-83
2023/09/22 14:36:27;;;;;;;7.80;2.10;;;;;;;;;;5051218;28;20235;-83
2023/09/22 14:38:58;;;;;;;2.00;1.33;;;;;;;;;;5051331;28;20206;-83
2023/09/22 14:41:26;;;;;;;0.50;0.50;;;;;;;;;;5051179;28;20219;-83
2023/09/22 14:43:55;;;;;;;0.67;0.67;;;;;;;;;;5050676;28;20201;-83
2023/09/22 14:46:24;;;;;;;28.97;3.30;;;;;;;;;;5051034;28;20205;-83
2023/09/22 14:48:52;;;;;;;0.40;0.40;;;;;;;;;;5051054;28;20197;-83
2023/09/22 14:51:21;;;;;;;6.57;1.53;;;;;;;;;;5050916;28;20278;-83
2023/09/22 14:53:50;;;;;;;0.53;0.53;;;;;;;;;;5051043;28;20227;-83
2023/09/22 14:56:22;;;;;;;1.13;1.13;;;;;;;;;;5050957;28;20234;-83
2023/09/22 14:58:50;;;;;;;0.77;0.77;;;;;;;;;;5054805;28;20198;-83
2023/09/22 15:01:19;;;;;;;0.97;0.90;;;;;;;;;;5054649;28;20254;-82
2023/09/22 15:03:49;;;;;;;5.83;1.37;;;;;;;;;;5054613;28;20212;-83